sensor_id;sensor_type;location;lat;lon;timestamp;P1;durP1;ratioP1;P2;durP2;ratioP2
19537;SDS011;9914;51.008;4.300;2023-05-10T00:01:04;244.47;;;235.17;;
19537;SDS011;9914;51.008;4.300;2023-05-10T00:03:30;238.77;;;229.67;;
19537;SDS011;9914;51.008;4.300;2023-05-10T00:05:56;237.97;;;228.87;;
19537;SDS011;9914;51.008;4.300;2023-05-10T00:08:22;244.30;;;235.13;;
19537;SDS011;9914;51.008;4.300;2023-05-10T00:10:47;238.63;;;229.50;;
19537;SDS011;9914;51.008;4.300;2023-05-10T00:13:13;235.47;;;226.37;;
19537;SDS011;9914;51.008;4.300;2023-05-10T00:15:39;228.20;;;219.77;;
19537;SDS011;9914;51.008;4.300;2023-05-10T00:18:04;245.73;;;235.97;;
19537;SDS011;9914;51.008;4.300;2023-05-10T00:20:30;243.13;;;233.83;;
19537;SDS011;9914;51.008;4.300;2023-05-10T00:22:56;243.57;;;234.43;;
19537;SDS011;9914;51.008;4.300;2023-05-10T00:25:21;248.23;;;238.87;;
19537;SDS011;9914;51.008;4.300;2023-05-10T00:27:47;258.20;;;248.47;;
19537;SDS011;9914;51.008;4.300;2023-05-10T00:30:13;252.67;;;243.27;;
19537;SDS011;9914;51.008;4.300;2023-05-10T00:32:39;256.83;;;246.83;;
19537;SDS011;9914;51.008;4.300;2023-05-10T00:35:04;245.73;;;236.57;;
19537;SDS011;9914;51.008;4.300;2023-05-10T00:37:30;243.07;;;234.07;;
19537;SDS011;9914;51.008;4.300;2023-05-10T00:39:56;241.77;;;232.23;;
19537;SDS011;9914;51.008;4.300;2023-05-10T00:42:22;231.47;;;222.57;;
19537;SDS011;9914;51.008;4.300;2023-05-10T00:44:47;244.53;;;235.27;;
19537;SDS011;9914;51.008;4.300;2023-05-10T00:47:13;238.63;;;229.50;;
19537;SDS011;9914;51.008;4.300;2023-05-10T00:49:40;221.10;;;212.20;;
19537;SDS011;9914;51.008;4.300;2023-05-10T00:52:06;235.60;;;226.90;;
19537;SDS011;9914;51.008;4.300;2023-05-10T00:54:32;236.87;;;227.73;;
19537;SDS011;9914;51.008;4.300;2023-05-10T00:56:58;240.13;;;230.70;;
19537;SDS011;9914;51.008;4.300;2023-05-10T00:59:24;229.77;;;220.60;;
19537;SDS011;9914;51.008;4.300;2023-05-10T01:01:50;231.30;;;222.43;;
19537;SDS011;9914;51.008;4.300;2023-05-10T01:04:17;226.00;;;217.27;;
19537;SDS011;9914;51.008;4.300;2023-05-10T01:06:45;231.70;;;223.03;;
19537;SDS011;9914;51.008;4.300;2023-05-10T01:09:11;221.87;;;213.27;;
19537;SDS011;9914;51.008;4.300;2023-05-10T01:11:37;217.60;;;209.30;;
19537;SDS011;9914;51.008;4.300;2023-05-10T01:14:04;228.97;;;220.20;;
19537;SDS011;9914;51.008;4.300;2023-05-10T01:16:32;225.73;;;217.23;;
19537;SDS011;9914;51.008;4.300;2023-05-10T01:19:02;217.57;;;209.33;;
19537;SDS011;9914;51.008;4.300;2023-05-10T01:39:04;200.77;;;192.80;;
19537;SDS011;9914;51.008;4.300;2023-05-10T01:46:53;205.80;;;197.30;;
19537;SDS011;9914;51.008;4.300;2023-05-10T01:49:49;265.73;;;254.83;;
19537;SDS011;9914;51.008;4.300;2023-05-10T01:52:18;198.17;;;190.23;;
19537;SDS011;9914;51.008;4.300;2023-05-10T01:54:53;227.37;;;218.20;;
19537;SDS011;9914;51.008;4.300;2023-05-10T01:57:25;226.77;;;217.90;;
19537;SDS011;9914;51.008;4.300;2023-05-10T01:59:56;229.77;;;220.47;;
19537;SDS011;9914;51.008;4.300;2023-05-10T02:02:24;243.57;;;234.10;;
19537;SDS011;9914;51.008;4.300;2023-05-10T02:04:52;244.07;;;234.50;;
19537;SDS011;9914;51.008;4.300;2023-05-10T02:07:19;246.20;;;236.67;;
19537;SDS011;9914;51.008;4.300;2023-05-10T02:09:46;246.37;;;236.37;;
19537;SDS011;9914;51.008;4.300;2023-05-10T02:12:13;248.63;;;239.17;;
19537;SDS011;9914;51.008;4.300;2023-05-10T02:14:40;248.27;;;238.50;;
19537;SDS011;9914;51.008;4.300;2023-05-10T02:17:07;253.03;;;243.30;;
19537;SDS011;9914;51.008;4.300;2023-05-10T02:19:35;250.73;;;240.73;;
19537;SDS011;9914;51.008;4.300;2023-05-10T02:22:03;245.67;;;236.00;;
19537;SDS011;9914;51.008;4.300;2023-05-10T02:24:30;241.17;;;230.77;;
19537;SDS011;9914;51.008;4.300;2023-05-10T02:26:57;238.93;;;229.20;;
19537;SDS011;9914;51.008;4.300;2023-05-10T02:29:24;258.57;;;247.93;;
19537;SDS011;9914;51.008;4.300;2023-05-10T02:31:52;247.50;;;237.40;;
19537;SDS011;9914;51.008;4.300;2023-05-10T02:34:23;226.30;;;217.13;;
19537;SDS011;9914;51.008;4.300;2023-05-10T02:36:52;260.43;;;249.93;;
19537;SDS011;9914;51.008;4.300;2023-05-10T02:39:19;237.33;;;226.83;;
19537;SDS011;9914;51.008;4.300;2023-05-10T02:41:46;229.87;;;219.67;;
19537;SDS011;9914;51.008;4.300;2023-05-10T02:44:19;417.00;;;396.03;;
19537;SDS011;9914;51.008;4.300;2023-05-10T02:46:47;220.20;;;210.57;;
19537;SDS011;9914;51.008;4.300;2023-05-10T02:49:13;233.00;;;222.53;;
19537;SDS011;9914;51.008;4.300;2023-05-10T02:51:47;216.90;;;206.63;;
19537;SDS011;9914;51.008;4.300;2023-05-10T02:54:20;203.80;;;194.80;;
19537;SDS011;9914;51.008;4.300;2023-05-10T02:56:58;209.17;;;199.90;;
19537;SDS011;9914;51.008;4.300;2023-05-10T02:59:28;187.93;;;179.37;;
19537;SDS011;9914;51.008;4.300;2023-05-10T03:01:54;200.57;;;190.97;;
19537;SDS011;9914;51.008;4.300;2023-05-10T03:04:20;198.87;;;189.57;;
19537;SDS011;9914;51.008;4.300;2023-05-10T03:06:45;234.77;;;224.53;;
19537;SDS011;9914;51.008;4.300;2023-05-10T03:09:11;199.57;;;190.90;;
19537;SDS011;9914;51.008;4.300;2023-05-10T03:11:47;200.00;;;190.60;;
19537;SDS011;9914;51.008;4.300;2023-05-10T03:14:39;175.43;;;166.90;;
19537;SDS011;9914;51.008;4.300;2023-05-10T03:19:48;191.50;;;182.40;;
19537;SDS011;9914;51.008;4.300;2023-05-10T03:22:30;216.70;;;206.50;;
19537;SDS011;9914;51.008;4.300;2023-05-10T03:25:04;180.57;;;172.37;;
19537;SDS011;9914;51.008;4.300;2023-05-10T03:27:31;245.00;;;233.93;;
19537;SDS011;9914;51.008;4.300;2023-05-10T03:29:58;204.73;;;195.43;;
19537;SDS011;9914;51.008;4.300;2023-05-10T03:32:25;210.73;;;200.23;;
19537;SDS011;9914;51.008;4.300;2023-05-10T03:34:52;197.07;;;188.10;;
19537;SDS011;9914;51.008;4.300;2023-05-10T03:37:17;192.17;;;183.17;;
19537;SDS011;9914;51.008;4.300;2023-05-10T03:39:43;261.57;;;249.37;;
19537;SDS011;9914;51.008;4.300;2023-05-10T03:42:09;201.77;;;192.40;;
19537;SDS011;9914;51.008;4.300;2023-05-10T03:44:36;204.97;;;195.23;;
19537;SDS011;9914;51.008;4.300;2023-05-10T03:47:03;476.43;;;449.63;;
19537;SDS011;9914;51.008;4.300;2023-05-10T03:49:29;344.30;;;328.23;;
19537;SDS011;9914;51.008;4.300;2023-05-10T03:51:55;290.77;;;276.73;;
19537;SDS011;9914;51.008;4.300;2023-05-10T03:54:20;625.20;;;586.17;;
19537;SDS011;9914;51.008;4.300;2023-05-10T03:56:46;192.20;;;183.17;;
19537;SDS011;9914;51.008;4.300;2023-05-10T03:59:13;227.13;;;216.77;;
19537;SDS011;9914;51.008;4.300;2023-05-10T04:01:38;207.10;;;197.43;;
19537;SDS011;9914;51.008;4.300;2023-05-10T04:04:04;203.00;;;193.43;;
19537;SDS011;9914;51.008;4.300;2023-05-10T04:06:30;207.47;;;197.90;;
19537;SDS011;9914;51.008;4.300;2023-05-10T04:08:55;200.80;;;191.53;;
19537;SDS011;9914;51.008;4.300;2023-05-10T04:11:24;217.37;;;207.67;;
19537;SDS011;9914;51.008;4.300;2023-05-10T04:13:50;179.17;;;170.60;;
19537;SDS011;9914;51.008;4.300;2023-05-10T04:16:16;201.30;;;191.60;;
19537;SDS011;9914;51.008;4.300;2023-05-10T04:18:41;199.03;;;189.77;;
19537;SDS011;9914;51.008;4.300;2023-05-10T04:21:13;241.73;;;230.60;;
19537;SDS011;9914;51.008;4.300;2023-05-10T04:23:39;219.83;;;209.57;;
19537;SDS011;9914;51.008;4.300;2023-05-10T04:26:05;192.73;;;183.67;;
19537;SDS011;9914;51.008;4.300;2023-05-10T04:28:31;215.90;;;205.93;;
19537;SDS011;9914;51.008;4.300;2023-05-10T04:31:00;189.53;;;180.10;;
19537;SDS011;9914;51.008;4.300;2023-05-10T04:33:29;199.93;;;190.73;;
19537;SDS011;9914;51.008;4.300;2023-05-10T04:35:55;529.57;;;494.87;;
19537;SDS011;9914;51.008;4.300;2023-05-10T04:38:21;223.87;;;213.60;;
19537;SDS011;9914;51.008;4.300;2023-05-10T04:40:47;337.53;;;321.33;;
19537;SDS011;9914;51.008;4.300;2023-05-10T04:43:13;213.30;;;203.97;;
19537;SDS011;9914;51.008;4.300;2023-05-10T04:45:38;209.90;;;200.50;;
19537;SDS011;9914;51.008;4.300;2023-05-10T04:48:04;237.80;;;227.57;;
19537;SDS011;9914;51.008;4.300;2023-05-10T04:50:30;361.00;;;345.27;;
19537;SDS011;9914;51.008;4.300;2023-05-10T04:52:56;453.43;;;429.43;;
19537;SDS011;9914;51.008;4.300;2023-05-10T04:55:22;234.20;;;223.97;;
19537;SDS011;9914;51.008;4.300;2023-05-10T04:57:48;247.80;;;237.20;;
19537;SDS011;9914;51.008;4.300;2023-05-10T05:00:13;634.63;;;593.13;;
19537;SDS011;9914;51.008;4.300;2023-05-10T05:02:43;224.07;;;214.53;;
19537;SDS011;9914;51.008;4.300;2023-05-10T05:05:10;317.47;;;304.10;;
19537;SDS011;9914;51.008;4.300;2023-05-10T05:07:36;260.90;;;249.50;;
19537;SDS011;9914;51.008;4.300;2023-05-10T05:10:03;358.90;;;342.27;;
19537;SDS011;9914;51.008;4.300;2023-05-10T05:12:32;503.87;;;476.93;;
19537;SDS011;9914;51.008;4.300;2023-05-10T05:14:58;255.63;;;245.07;;
19537;SDS011;9914;51.008;4.300;2023-05-10T05:17:23;251.67;;;241.17;;
19537;SDS011;9914;51.008;4.300;2023-05-10T05:19:49;293.33;;;279.20;;
19537;SDS011;9914;51.008;4.300;2023-05-10T05:22:14;288.37;;;276.80;;
19537;SDS011;9914;51.008;4.300;2023-05-10T05:24:41;319.23;;;305.83;;
19537;SDS011;9914;51.008;4.300;2023-05-10T05:27:06;269.70;;;258.57;;
19537;SDS011;9914;51.008;4.300;2023-05-10T05:29:32;358.67;;;343.37;;
19537;SDS011;9914;51.008;4.300;2023-05-10T05:31:58;342.87;;;328.60;;
19537;SDS011;9914;51.008;4.300;2023-05-10T05:34:24;294.40;;;282.50;;
19537;SDS011;9914;51.008;4.300;2023-05-10T05:36:50;340.77;;;326.83;;
19537;SDS011;9914;51.008;4.300;2023-05-10T05:39:15;471.73;;;448.13;;
19537;SDS011;9914;51.008;4.300;2023-05-10T05:41:41;554.30;;;527.07;;
19537;SDS011;9914;51.008;4.300;2023-05-10T05:44:07;441.40;;;422.37;;
19537;SDS011;9914;51.008;4.300;2023-05-10T05:46:33;399.27;;;382.90;;
19537;SDS011;9914;51.008;4.300;2023-05-10T05:48:59;489.43;;;469.43;;
19537;SDS011;9914;51.008;4.300;2023-05-10T05:51:24;423.43;;;406.43;;
19537;SDS011;9914;51.008;4.300;2023-05-10T05:53:50;545.93;;;520.27;;
19537;SDS011;9914;51.008;4.300;2023-05-10T05:56:16;566.23;;;540.20;;
19537;SDS011;9914;51.008;4.300;2023-05-10T05:58:42;527.83;;;504.73;;
19537;SDS011;9914;51.008;4.300;2023-05-10T06:01:09;619.80;;;590.03;;
19537;SDS011;9914;51.008;4.300;2023-05-10T06:03:35;531.10;;;508.43;;
19537;SDS011;9914;51.008;4.300;2023-05-10T06:06:00;832.93;;;783.90;;
19537;SDS011;9914;51.008;4.300;2023-05-10T06:08:26;707.90;;;669.17;;
19537;SDS011;9914;51.008;4.300;2023-05-10T06:10:52;603.73;;;575.77;;
19537;SDS011;9914;51.008;4.300;2023-05-10T06:13:17;765.13;;;717.30;;
19537;SDS011;9914;51.008;4.300;2023-05-10T06:15:43;567.10;;;541.90;;
19537;SDS011;9914;51.008;4.300;2023-05-10T06:18:09;506.93;;;484.07;;
19537;SDS011;9914;51.008;4.300;2023-05-10T06:20:34;588.70;;;554.93;;
19537;SDS011;9914;51.008;4.300;2023-05-10T06:23:00;513.47;;;490.20;;
19537;SDS011;9914;51.008;4.300;2023-05-10T06:25:26;654.83;;;622.17;;
19537;SDS011;9914;51.008;4.300;2023-05-10T06:27:51;694.67;;;660.53;;
19537;SDS011;9914;51.008;4.300;2023-05-10T06:30:22;650.87;;;620.07;;
19537;SDS011;9914;51.008;4.300;2023-05-10T06:32:52;793.93;;;748.80;;
19537;SDS011;9914;51.008;4.300;2023-05-10T06:35:18;530.57;;;507.37;;
19537;SDS011;9914;51.008;4.300;2023-05-10T06:37:44;633.33;;;595.47;;
19537;SDS011;9914;51.008;4.300;2023-05-10T06:40:09;510.17;;;488.20;;
19537;SDS011;9914;51.008;4.300;2023-05-10T06:42:35;523.87;;;500.90;;
19537;SDS011;9914;51.008;4.300;2023-05-10T06:45:01;504.63;;;482.17;;
19537;SDS011;9914;51.008;4.300;2023-05-10T06:47:27;625.50;;;585.93;;
19537;SDS011;9914;51.008;4.300;2023-05-10T06:49:52;532.23;;;508.47;;
19537;SDS011;9914;51.008;4.300;2023-05-10T06:52:18;540.90;;;514.87;;
19537;SDS011;9914;51.008;4.300;2023-05-10T06:54:44;867.30;;;812.20;;
19537;SDS011;9914;51.008;4.300;2023-05-10T06:57:09;578.13;;;546.07;;
19537;SDS011;9914;51.008;4.300;2023-05-10T06:59:35;766.17;;;724.27;;
19537;SDS011;9914;51.008;4.300;2023-05-10T07:02:01;581.67;;;555.40;;
19537;SDS011;9914;51.008;4.300;2023-05-10T07:04:27;564.90;;;540.10;;
19537;SDS011;9914;51.008;4.300;2023-05-10T07:06:52;601.30;;;573.90;;
19537;SDS011;9914;51.008;4.300;2023-05-10T07:09:18;635.80;;;606.53;;
19537;SDS011;9914;51.008;4.300;2023-05-10T07:11:44;572.60;;;546.90;;
19537;SDS011;9914;51.008;4.300;2023-05-10T07:14:10;609.33;;;580.53;;
19537;SDS011;9914;51.008;4.300;2023-05-10T07:16:35;608.33;;;579.50;;
19537;SDS011;9914;51.008;4.300;2023-05-10T07:19:01;619.47;;;591.37;;
19537;SDS011;9914;51.008;4.300;2023-05-10T07:21:27;693.40;;;652.93;;
19537;SDS011;9914;51.008;4.300;2023-05-10T07:23:53;748.63;;;709.87;;
19537;SDS011;9914;51.008;4.300;2023-05-10T07:26:19;673.93;;;642.83;;
19537;SDS011;9914;51.008;4.300;2023-05-10T07:28:45;661.80;;;625.67;;
19537;SDS011;9914;51.008;4.300;2023-05-10T07:31:11;605.00;;;576.97;;
19537;SDS011;9914;51.008;4.300;2023-05-10T07:33:37;688.90;;;646.57;;
19537;SDS011;9914;51.008;4.300;2023-05-10T07:36:03;798.23;;;753.40;;
19537;SDS011;9914;51.008;4.300;2023-05-10T07:38:28;599.97;;;571.37;;
19537;SDS011;9914;51.008;4.300;2023-05-10T07:40:54;563.43;;;537.67;;
19537;SDS011;9914;51.008;4.300;2023-05-10T07:43:20;548.00;;;523.07;;
19537;SDS011;9914;51.008;4.300;2023-05-10T07:45:45;517.57;;;494.53;;
19537;SDS011;9914;51.008;4.300;2023-05-10T07:48:11;475.83;;;456.17;;
19537;SDS011;9914;51.008;4.300;2023-05-10T07:50:37;500.37;;;477.53;;
19537;SDS011;9914;51.008;4.300;2023-05-10T07:53:02;504.80;;;483.60;;
19537;SDS011;9914;51.008;4.300;2023-05-10T07:55:28;566.50;;;542.20;;
19537;SDS011;9914;51.008;4.300;2023-05-10T07:57:53;714.23;;;678.80;;
19537;SDS011;9914;51.008;4.300;2023-05-10T08:00:19;805.37;;;756.30;;
19537;SDS011;9914;51.008;4.300;2023-05-10T08:02:46;810.23;;;767.33;;
19537;SDS011;9914;51.008;4.300;2023-05-10T08:05:12;617.03;;;585.13;;
19537;SDS011;9914;51.008;4.300;2023-05-10T08:07:38;696.27;;;665.27;;
19537;SDS011;9914;51.008;4.300;2023-05-10T08:10:04;624.30;;;596.40;;
19537;SDS011;9914;51.008;4.300;2023-05-10T08:12:30;908.23;;;837.50;;
19537;SDS011;9914;51.008;4.300;2023-05-10T08:14:56;647.70;;;619.60;;
19537;SDS011;9914;51.008;4.300;2023-05-10T08:17:22;796.63;;;750.00;;
19537;SDS011;9914;51.008;4.300;2023-05-10T08:19:47;650.20;;;621.23;;
19537;SDS011;9914;51.008;4.300;2023-05-10T08:22:13;745.23;;;703.77;;
19537;SDS011;9914;51.008;4.300;2023-05-10T08:24:39;645.33;;;613.60;;
19537;SDS011;9914;51.008;4.300;2023-05-10T08:27:07;645.07;;;611.30;;
19537;SDS011;9914;51.008;4.300;2023-05-10T08:29:33;578.57;;;552.83;;
19537;SDS011;9914;51.008;4.300;2023-05-10T08:31:59;569.53;;;546.10;;
19537;SDS011;9914;51.008;4.300;2023-05-10T08:34:26;541.37;;;518.23;;
19537;SDS011;9914;51.008;4.300;2023-05-10T08:36:52;956.27;;;888.27;;
19537;SDS011;9914;51.008;4.300;2023-05-10T08:39:18;558.67;;;534.20;;
19537;SDS011;9914;51.008;4.300;2023-05-10T08:41:44;533.00;;;508.20;;
19537;SDS011;9914;51.008;4.300;2023-05-10T08:44:11;623.37;;;594.50;;
19537;SDS011;9914;51.008;4.300;2023-05-10T08:46:37;516.00;;;493.70;;
19537;SDS011;9914;51.008;4.300;2023-05-10T08:49:09;521.37;;;496.87;;
19537;SDS011;9914;51.008;4.300;2023-05-10T08:51:39;539.40;;;512.47;;
19537;SDS011;9914;51.008;4.300;2023-05-10T08:54:08;482.60;;;462.07;;
19537;SDS011;9914;51.008;4.300;2023-05-10T08:56:34;516.57;;;492.37;;
19537;SDS011;9914;51.008;4.300;2023-05-10T08:59:01;763.70;;;720.63;;
19537;SDS011;9914;51.008;4.300;2023-05-10T09:01:27;597.70;;;570.73;;
19537;SDS011;9914;51.008;4.300;2023-05-10T09:03:55;497.23;;;474.97;;
19537;SDS011;9914;51.008;4.300;2023-05-10T09:06:21;552.17;;;526.90;;
19537;SDS011;9914;51.008;4.300;2023-05-10T09:08:47;452.57;;;432.67;;
19537;SDS011;9914;51.008;4.300;2023-05-10T09:11:13;482.60;;;459.13;;
19537;SDS011;9914;51.008;4.300;2023-05-10T09:13:39;528.47;;;505.53;;
19537;SDS011;9914;51.008;4.300;2023-05-10T09:16:05;534.47;;;511.30;;
19537;SDS011;9914;51.008;4.300;2023-05-10T09:18:30;506.20;;;483.80;;
19537;SDS011;9914;51.008;4.300;2023-05-10T09:20:56;426.43;;;408.90;;
19537;SDS011;9914;51.008;4.300;2023-05-10T09:23:22;532.87;;;507.27;;
19537;SDS011;9914;51.008;4.300;2023-05-10T09:25:48;463.30;;;443.73;;
19537;SDS011;9914;51.008;4.300;2023-05-10T09:28:31;369.20;;;354.50;;
19537;SDS011;9914;51.008;4.300;2023-05-10T09:30:57;486.83;;;460.97;;
19537;SDS011;9914;51.008;4.300;2023-05-10T09:33:23;680.10;;;636.03;;
19537;SDS011;9914;51.008;4.300;2023-05-10T09:35:49;544.10;;;517.90;;
19537;SDS011;9914;51.008;4.300;2023-05-10T09:38:16;480.67;;;459.87;;
19537;SDS011;9914;51.008;4.300;2023-05-10T09:40:42;608.40;;;579.73;;
19537;SDS011;9914;51.008;4.300;2023-05-10T09:43:19;545.63;;;522.13;;
19537;SDS011;9914;51.008;4.300;2023-05-10T09:45:45;487.10;;;466.00;;
19537;SDS011;9914;51.008;4.300;2023-05-10T09:48:14;447.40;;;428.87;;
19537;SDS011;9914;51.008;4.300;2023-05-10T09:50:40;511.70;;;490.03;;
19537;SDS011;9914;51.008;4.300;2023-05-10T09:53:06;738.23;;;689.63;;
19537;SDS011;9914;51.008;4.300;2023-05-10T09:58:05;774.83;;;727.30;;
19537;SDS011;9914;51.008;4.300;2023-05-10T10:00:38;455.73;;;436.90;;
19537;SDS011;9914;51.008;4.300;2023-05-10T10:03:05;458.93;;;438.63;;
19537;SDS011;9914;51.008;4.300;2023-05-10T10:05:32;538.10;;;512.43;;
19537;SDS011;9914;51.008;4.300;2023-05-10T10:07:59;467.00;;;447.17;;
19537;SDS011;9914;51.008;4.300;2023-05-10T10:10:26;474.23;;;454.70;;
19537;SDS011;9914;51.008;4.300;2023-05-10T10:12:52;642.13;;;610.80;;
19537;SDS011;9914;51.008;4.300;2023-05-10T10:15:18;622.47;;;590.17;;
19537;SDS011;9914;51.008;4.300;2023-05-10T10:17:46;837.47;;;785.90;;
19537;SDS011;9914;51.008;4.300;2023-05-10T10:20:13;693.23;;;655.93;;
19537;SDS011;9914;51.008;4.300;2023-05-10T10:22:39;611.33;;;585.43;;
19537;SDS011;9914;51.008;4.300;2023-05-10T10:25:05;678.63;;;648.93;;
19537;SDS011;9914;51.008;4.300;2023-05-10T10:27:43;704.57;;;672.30;;
19537;SDS011;9914;51.008;4.300;2023-05-10T10:35:59;639.90;;;612.13;;
19537;SDS011;9914;51.008;4.300;2023-05-10T10:38:35;692.40;;;656.73;;
19537;SDS011;9914;51.008;4.300;2023-05-10T10:49:50;753.20;;;709.07;;
19537;SDS011;9914;51.008;4.300;2023-05-10T10:52:39;699.23;;;661.10;;
19537;SDS011;9914;51.008;4.300;2023-05-10T11:00:20;639.23;;;611.73;;
19537;SDS011;9914;51.008;4.300;2023-05-10T11:03:03;649.20;;;620.27;;
19537;SDS011;9914;51.008;4.300;2023-05-10T11:15:55;676.50;;;647.00;;
19537;SDS011;9914;51.008;4.300;2023-05-10T11:20:52;946.97;;;886.30;;
19537;SDS011;9914;51.008;4.300;2023-05-10T11:23:21;856.83;;;796.40;;
19537;SDS011;9914;51.008;4.300;2023-05-10T11:25:48;869.57;;;816.37;;
19537;SDS011;9914;51.008;4.300;2023-05-10T11:28:16;798.97;;;760.07;;
19537;SDS011;9914;51.008;4.300;2023-05-10T11:30:44;735.07;;;701.50;;
19537;SDS011;9914;51.008;4.300;2023-05-10T11:33:14;875.33;;;825.87;;
19537;SDS011;9914;51.008;4.300;2023-05-10T11:35:41;673.33;;;644.57;;
19537;SDS011;9914;51.008;4.300;2023-05-10T11:38:07;694.47;;;662.87;;
19537;SDS011;9914;51.008;4.300;2023-05-10T11:40:34;730.00;;;694.47;;
19537;SDS011;9914;51.008;4.300;2023-05-10T11:43:01;735.83;;;702.93;;
19537;SDS011;9914;51.008;4.300;2023-05-10T11:45:28;707.90;;;675.80;;
19537;SDS011;9914;51.008;4.300;2023-05-10T11:47:57;755.67;;;717.40;;
19537;SDS011;9914;51.008;4.300;2023-05-10T11:50:24;816.90;;;772.17;;
19537;SDS011;9914;51.008;4.300;2023-05-10T11:52:56;758.10;;;723.23;;
19537;SDS011;9914;51.008;4.300;2023-05-10T11:55:23;745.70;;;711.03;;
19537;SDS011;9914;51.008;4.300;2023-05-10T11:57:52;751.60;;;717.93;;
19537;SDS011;9914;51.008;4.300;2023-05-10T12:00:19;730.40;;;697.53;;
19537;SDS011;9914;51.008;4.300;2023-05-10T12:02:45;819.83;;;772.13;;
19537;SDS011;9914;51.008;4.300;2023-05-10T12:05:11;764.30;;;728.17;;
19537;SDS011;9914;51.008;4.300;2023-05-10T12:07:37;896.60;;;847.77;;
19537;SDS011;9914;51.008;4.300;2023-05-10T12:10:04;863.33;;;818.87;;
19537;SDS011;9914;51.008;4.300;2023-05-10T12:12:43;745.23;;;709.80;;
19537;SDS011;9914;51.008;4.300;2023-05-10T12:15:17;779.03;;;734.87;;
19537;SDS011;9914;51.008;4.300;2023-05-10T12:17:44;685.00;;;656.43;;
19537;SDS011;9914;51.008;4.300;2023-05-10T12:20:17;868.93;;;823.03;;
19537;SDS011;9914;51.008;4.300;2023-05-10T12:22:52;740.87;;;706.73;;
19537;SDS011;9914;51.008;4.300;2023-05-10T12:25:20;740.80;;;707.13;;
19537;SDS011;9914;51.008;4.300;2023-05-10T12:27:48;733.83;;;701.77;;
19537;SDS011;9914;51.008;4.300;2023-05-10T12:30:22;779.50;;;735.43;;
19537;SDS011;9914;51.008;4.300;2023-05-10T12:32:49;726.80;;;694.90;;
19537;SDS011;9914;51.008;4.300;2023-05-10T12:35:15;764.67;;;730.30;;
19537;SDS011;9914;51.008;4.300;2023-05-10T12:37:44;811.50;;;772.87;;
19537;SDS011;9914;51.008;4.300;2023-05-10T12:40:10;731.43;;;699.70;;
19537;SDS011;9914;51.008;4.300;2023-05-10T12:42:37;720.37;;;689.23;;
19537;SDS011;9914;51.008;4.300;2023-05-10T12:45:04;719.23;;;687.83;;
19537;SDS011;9914;51.008;4.300;2023-05-10T12:47:30;791.80;;;752.53;;
19537;SDS011;9914;51.008;4.300;2023-05-10T12:49:56;728.40;;;694.63;;
19537;SDS011;9914;51.008;4.300;2023-05-10T12:52:23;765.33;;;731.00;;
19537;SDS011;9914;51.008;4.300;2023-05-10T12:54:49;764.33;;;729.67;;
19537;SDS011;9914;51.008;4.300;2023-05-10T12:57:15;744.90;;;711.77;;
19537;SDS011;9914;51.008;4.300;2023-05-10T12:59:41;817.33;;;776.13;;
19537;SDS011;9914;51.008;4.300;2023-05-10T13:02:07;761.40;;;725.37;;
19537;SDS011;9914;51.008;4.300;2023-05-10T13:04:33;769.43;;;733.27;;
19537;SDS011;9914;51.008;4.300;2023-05-10T13:06:59;792.17;;;753.70;;
19537;SDS011;9914;51.008;4.300;2023-05-10T13:09:25;794.13;;;756.17;;
19537;SDS011;9914;51.008;4.300;2023-05-10T13:11:51;765.87;;;730.60;;
19537;SDS011;9914;51.008;4.300;2023-05-10T13:14:19;752.03;;;717.40;;
19537;SDS011;9914;51.008;4.300;2023-05-10T13:16:45;842.57;;;795.53;;
19537;SDS011;9914;51.008;4.300;2023-05-10T13:19:12;814.90;;;774.93;;
19537;SDS011;9914;51.008;4.300;2023-05-10T13:21:38;807.17;;;768.50;;
19537;SDS011;9914;51.008;4.300;2023-05-10T13:24:06;810.27;;;771.33;;
19537;SDS011;9914;51.008;4.300;2023-05-10T13:26:32;790.37;;;752.00;;
19537;SDS011;9914;51.008;4.300;2023-05-10T13:28:58;783.37;;;744.73;;
19537;SDS011;9914;51.008;4.300;2023-05-10T13:31:23;763.93;;;728.67;;
19537;SDS011;9914;51.008;4.300;2023-05-10T13:33:49;793.33;;;755.60;;
19537;SDS011;9914;51.008;4.300;2023-05-10T13:36:15;836.03;;;788.87;;
19537;SDS011;9914;51.008;4.300;2023-05-10T13:38:40;864.47;;;809.57;;
19537;SDS011;9914;51.008;4.300;2023-05-10T13:41:06;839.87;;;792.23;;
19537;SDS011;9914;51.008;4.300;2023-05-10T13:43:32;1015.40;;;943.07;;
19537;SDS011;9914;51.008;4.300;2023-05-10T13:45:57;816.30;;;776.10;;
19537;SDS011;9914;51.008;4.300;2023-05-10T13:48:23;848.03;;;799.37;;
19537;SDS011;9914;51.008;4.300;2023-05-10T13:50:49;871.00;;;828.07;;
19537;SDS011;9914;51.008;4.300;2023-05-10T13:53:14;835.07;;;793.53;;
19537;SDS011;9914;51.008;4.300;2023-05-10T13:55:40;823.93;;;783.13;;
19537;SDS011;9914;51.008;4.300;2023-05-10T13:58:06;962.97;;;905.87;;
19537;SDS011;9914;51.008;4.300;2023-05-10T14:00:32;827.33;;;786.80;;
19537;SDS011;9914;51.008;4.300;2023-05-10T14:02:57;830.97;;;790.20;;
19537;SDS011;9914;51.008;4.300;2023-05-10T14:05:23;828.37;;;787.43;;
19537;SDS011;9914;51.008;4.300;2023-05-10T14:07:49;850.93;;;808.80;;
19537;SDS011;9914;51.008;4.300;2023-05-10T14:10:15;853.30;;;808.50;;
19537;SDS011;9914;51.008;4.300;2023-05-10T14:12:41;841.70;;;800.37;;
19537;SDS011;9914;51.008;4.300;2023-05-10T14:15:07;901.80;;;847.37;;
19537;SDS011;9914;51.008;4.300;2023-05-10T14:17:35;869.33;;;825.10;;
19537;SDS011;9914;51.008;4.300;2023-05-10T14:20:01;855.23;;;812.43;;
19537;SDS011;9914;51.008;4.300;2023-05-10T14:22:27;878.03;;;834.43;;
19537;SDS011;9914;51.008;4.300;2023-05-10T14:24:53;871.23;;;826.23;;
19537;SDS011;9914;51.008;4.300;2023-05-10T14:27:18;778.80;;;741.93;;
19537;SDS011;9914;51.008;4.300;2023-05-10T14:29:44;875.73;;;825.27;;
19537;SDS011;9914;51.008;4.300;2023-05-10T14:32:10;850.73;;;808.50;;
19537;SDS011;9914;51.008;4.300;2023-05-10T14:34:35;843.80;;;802.53;;
19537;SDS011;9914;51.008;4.300;2023-05-10T14:37:01;890.67;;;837.30;;
19537;SDS011;9914;51.008;4.300;2023-05-10T14:39:27;854.17;;;810.10;;
19537;SDS011;9914;51.008;4.300;2023-05-10T14:41:55;887.17;;;834.10;;
19537;SDS011;9914;51.008;4.300;2023-05-10T14:44:21;829.93;;;787.83;;
19537;SDS011;9914;51.008;4.300;2023-05-10T14:46:46;807.70;;;769.33;;
19537;SDS011;9914;51.008;4.300;2023-05-10T14:49:13;810.53;;;770.33;;
19537;SDS011;9914;51.008;4.300;2023-05-10T14:51:39;805.63;;;766.93;;
19537;SDS011;9914;51.008;4.300;2023-05-10T14:54:04;931.23;;;876.70;;
19537;SDS011;9914;51.008;4.300;2023-05-10T14:56:30;795.47;;;757.73;;
19537;SDS011;9914;51.008;4.300;2023-05-10T14:58:56;937.13;;;877.83;;
19537;SDS011;9914;51.008;4.300;2023-05-10T15:01:22;754.50;;;719.97;;
19537;SDS011;9914;51.008;4.300;2023-05-10T15:03:48;818.23;;;776.40;;
19537;SDS011;9914;51.008;4.300;2023-05-10T15:06:14;793.97;;;752.47;;
19537;SDS011;9914;51.008;4.300;2023-05-10T15:08:41;731.80;;;698.20;;